Time;durP1;ratioP1;P1;durP2;ratioP2;P2;SDS_P1;SDS_P2;PMS_P1;PMS_P2;Temp;Humidity;BMP_temperature;BMP_pressure;BME280_temperature;BME280_humidity;BME280_pressure;Samples;Min_cycle;Max_cycle;Signal;HPM_P1;HPM_P2
2023/07/09 00:01:43;;;;;;;0.50;0.20;;;;;;;19.88;100.00;100478.66;5020048;28;20462;-56
2023/07/09 00:04:12;;;;;;;0.50;0.20;;;;;;;19.89;100.00;100483.09;5015115;28;21070;-56
2023/07/09 00:06:40;;;;;;;0.50;0.20;;;;;;;19.88;100.00;100481.34;5021745;28;20472;-56
2023/07/09 00:09:25;;;;;;;0.50;0.20;;;;;;;19.95;100.00;100488.06;5014807;28;20526;-55
2023/07/09 00:11:51;;;;;;;0.50;0.20;;;;;;;19.78;100.00;100479.25;5012744;28;20506;-55
2023/07/09 00:14:18;;;;;;;0.50;0.20;;;;;;;19.95;100.00;100488.06;5020324;28;20571;-55
2023/07/09 00:16:48;;;;;;;0.50;0.20;;;;;;;20.07;100.00;100492.69;5014591;28;20464;-55
2023/07/09 00:19:20;;;;;;;0.50;0.20;;;;;;;20.03;100.00;100491.16;5021637;28;20462;-55
2023/07/09 00:21:49;;;;;;;0.50;0.20;;;;;;;19.75;100.00;100495.63;5013246;28;20470;-55
2023/07/09 00:24:15;;;;;;;0.50;0.20;;;;;;;19.68;100.00;100499.66;5007784;28;20835;-55
2023/07/09 00:26:42;;;;;;;0.50;0.20;;;;;;;19.64;100.00;100498.13;5015439;28;20464;-56
2023/07/09 00:29:10;;;;;;;0.50;0.30;;;;;;;19.61;100.00;100502.84;5006196;28;20468;-56
2023/07/09 00:31:41;;;;;;;0.50;0.20;;;;;;;19.66;100.00;100501.59;5014709;28;20468;-55
2023/07/09 00:34:11;;;;;;;0.50;0.20;;;;;;;19.50;100.00;100503.47;5021245;28;20488;-55
2023/07/09 00:36:38;;;;;;;0.50;0.20;;;;;;;19.32;100.00;100508.16;5018748;28;20473;-55
2023/07/09 00:39:05;;;;;;;0.50;0.20;;;;;;;18.93;100.00;100504.25;5016605;28;20538;-52
2023/07/09 00:41:37;;;;;;;0.50;0.20;;;;;;;18.78;100.00;100509.69;5019508;28;20464;-53
2023/07/09 00:44:30;;;;;;;0.50;0.20;;;;;;;19.02;100.00;100512.72;5017370;28;20507;-53
2023/07/09 00:47:02;;;;;;;0.50;0.20;;;;;;;19.15;100.00;100514.59;5015847;28;20476;-53
2023/07/09 00:49:46;;;;;;;0.60;0.30;;;;;;;19.34;100.00;100503.56;5018873;28;21016;-53
2023/07/09 00:52:32;;;;;;;0.50;0.20;;;;;;;19.34;100.00;100510.78;5018353;28;20543;-53
2023/07/09 00:55:05;;;;;;;0.50;0.20;;;;;;;19.37;100.00;100510.59;5026178;28;20476;-53
2023/07/09 00:57:37;;;;;;;0.50;0.20;;;;;;;19.43;100.00;100518.28;5021638;28;20460;-53
2023/07/09 01:00:09;;;;;;;0.50;0.20;;;;;;;19.41;100.00;100515.69;5019542;28;20837;-53
2023/07/09 01:02:44;;;;;;;0.50;0.20;;;;;;;19.35;100.00;100510.69;5024619;28;20979;-53
2023/07/09 01:05:13;;;;;;;0.50;0.20;;;;;;;19.17;100.00;100503.69;5019431;28;20939;-53
2023/07/09 01:07:40;;;;;;;0.50;0.20;;;;;;;19.15;100.00;100501.09;5023589;28;20590;-53
2023/07/09 01:10:07;;;;;;;0.50;0.20;;;;;;;19.07;100.00;100503.41;5021635;28;20496;-53
2023/07/09 01:12:33;;;;;;;0.50;0.20;;;;;;;19.18;100.00;100503.59;5019550;28;20554;-53
2023/07/09 01:15:00;;;;;;;0.50;0.20;;;;;;;19.35;100.00;100510.69;5025672;28;20566;-53
2023/07/09 01:17:28;;;;;;;0.50;0.20;;;;;;;19.13;100.00;100510.25;5021626;28;20816;-54
2023/07/09 01:19:55;;;;;;;0.50;0.20;;;;;;;19.03;100.00;100507.22;5023433;28;20473;-53
2023/07/09 01:22:23;;;;;;;0.50;0.20;;;;;;;19.03;100.00;100509.94;5020566;28;20467;-53
2023/07/09 01:25:02;;;;;;;0.50;0.20;;;;;;;18.95;100.00;100509.53;5015676;28;20503;-53
2023/07/09 01:27:33;;;;;;;0.50;0.20;;;;;;;18.87;100.00;100511.81;5019142;28;20474;-52
2023/07/09 01:30:06;;;;;;;0.50;0.20;;;;;;;18.81;100.00;100512.19;5016839;28;20567;-53
2023/07/09 01:32:33;;;;;;;0.50;0.20;;;;;;;18.74;100.00;100508.09;5018121;28;20464;-53
2023/07/09 01:35:06;;;;;;;0.50;0.20;;;;;;;18.86;100.00;100513.63;5020056;28;20560;-53
2023/07/09 01:37:36;;;;;;;0.50;0.30;;;;;;;18.88;100.00;100503.63;5018930;28;20504;-53
2023/07/09 01:40:05;;;;;;;0.50;0.20;;;;;;;18.81;100.00;100504.09;5022623;28;20459;-53
2023/07/09 01:42:46;;;;;;;0.50;0.20;;;;;;;18.50;100.00;100513.06;5015716;28;20805;-55
2023/07/09 01:45:13;;;;;;;0.50;0.20;;;;;;;18.65;100.00;100512.22;5020231;28;20503;-53
2023/07/09 01:47:40;;;;;;;0.50;0.20;;;;;;;18.69;100.00;100511.06;5017968;28;20503;-52
2023/07/09 01:50:09;;;;;;;0.50;0.20;;;;;;;18.66;100.00;100505.00;5008383;28;20477;-53
2023/07/09 01:52:37;;;;;;;0.50;0.20;;;;;;;18.55;100.00;100501.06;5019008;28;20579;-55
2023/07/09 01:55:05;;;;;;;0.50;0.20;;;;;;;18.59;100.00;100504.44;5014527;28;20512;-53
2023/07/09 01:57:34;;;;;;;0.50;0.20;;;;;;;18.64;100.00;100511.34;5018105;28;20890;-53
2023/07/09 02:00:10;;;;;;;0.50;0.20;;;;;;;18.62;100.00;100504.25;5018042;28;20468;-54
2023/07/09 02:02:42;;;;;;;0.50;0.20;;;;;;;18.53;100.00;100511.06;5018495;28;20460;-53
2023/07/09 02:05:12;;;;;;;0.50;0.20;;;;;;;18.51;100.00;100507.59;5018663;28;20496;-53
2023/07/09 02:07:39;;;;;;;0.50;0.20;;;;;;;18.55;100.00;100510.97;5024380;28;20494;-53
2023/07/09 02:10:07;;;;;;;0.50;0.20;;;;;;;18.50;100.00;100510.34;5020265;28;20546;-53
2023/07/09 02:12:33;;;;;;;0.50;0.20;;;;;;;18.46;100.00;100517.75;5017931;28;20463;-54
2023/07/09 02:15:00;;;;;;;0.50;0.20;;;;;;;18.42;100.00;100512.66;5021851;28;20517;-53
2023/07/09 02:17:26;;;;;;;0.50;0.20;;;;;;;18.31;100.00;100505.19;5020601;28;20583;-53
2023/07/09 02:19:53;;;;;;;0.50;0.30;;;;;;;18.41;100.00;100511.78;5022244;28;20507;-54
2023/07/09 02:22:19;;;;;;;0.50;0.30;;;;;;;18.39;100.00;100515.53;5016373;28;20515;-53
2023/07/09 02:24:46;;;;;;;0.50;0.20;;;;;;;18.44;100.00;100513.41;5015049;28;20495;-53
2023/07/09 02:27:17;;;;;;;0.50;0.20;;;;;;;18.52;100.00;100516.56;5022654;28;20970;-53
2023/07/09 02:29:44;;;;;;;0.50;0.20;;;;;;;18.44;100.00;100516.97;5017126;28;20966;-53
2023/07/09 02:32:18;;;;;;;0.50;0.20;;;;;;;18.35;100.00;100520.19;5022060;28;20944;-53
2023/07/09 02:34:48;;;;;;;0.50;0.20;;;;;;;18.30;100.00;100522.28;5037814;22;20495;-51
2023/07/09 02:37:17;;;;;;;0.50;0.20;;;;;;;18.22;100.00;100519.16;5034122;28;20466;-47
2023/07/09 02:39:44;;;;;;;0.50;0.20;;;;;;;18.24;100.00;100520.81;5033650;28;20471;-48
2023/07/09 02:42:13;;;;;;;0.50;0.20;;;;;;;18.29;100.00;100520.53;5033631;28;20468;-48
2023/07/09 02:44:42;;;;;;;0.50;0.20;;;;;;;18.41;100.00;100522.53;5033113;28;21059;-48
2023/07/09 02:47:09;;;;;;;0.50;0.20;;;;;;;18.34;100.00;100527.41;5025112;28;20471;-47
2023/07/09 02:49:36;;;;;;;0.50;0.20;;;;;;;18.23;100.00;100534.38;5022971;28;20831;-48
2023/07/09 02:52:03;;;;;;;0.50;0.20;;;;;;;18.24;100.00;100530.72;5022993;28;20562;-48
2023/07/09 02:54:29;;;;;;;0.50;0.20;;;;;;;18.13;100.00;100533.13;5016534;28;20518;-50
2023/07/09 02:56:56;;;;;;;0.50;0.20;;;;;;;18.23;100.00;100529.84;5026059;28;20478;-48
2023/07/09 02:59:22;;;;;;;0.50;0.20;;;;;;;18.13;100.00;100533.13;5020085;28;20956;-48
2023/07/09 03:01:50;;;;;;;0.50;0.20;;;;;;;18.02;100.00;100537.28;5028974;28;20473;-47
2023/07/09 03:04:16;;;;;;;0.50;0.20;;;;;;;17.90;100.00;100535.28;5021261;28;20891;-48
2023/07/09 03:06:43;;;;;;;0.50;0.20;;;;;;;17.91;100.00;100550.44;5020186;28;20499;-48
2023/07/09 03:09:09;;;;;;;0.50;0.20;;;;;;;17.80;100.00;100544.78;5013579;28;20957;-48
2023/07/09 03:11:40;;;;;;;0.50;0.20;;;;;;;17.76;100.00;100545.91;5030201;28;20471;-47
2023/07/09 03:14:08;;;;;;;0.50;0.20;;;;;;;17.81;100.00;100553.72;5020942;28;20515;-49
2023/07/09 03:16:35;;;;;;;0.50;0.20;;;;;;;17.73;100.00;100546.94;5020278;28;20482;-49
2023/07/09 03:19:03;;;;;;;0.50;0.20;;;;;;;17.89;100.00;100554.19;5024609;28;20551;-48
2023/07/09 03:21:31;;;;;;;0.50;0.20;;;;;;;17.86;100.00;100557.03;5029040;28;20467;-48
2023/07/09 03:23:59;;;;;;;0.50;0.20;;;;;;;17.88;100.00;100561.38;5028011;28;20472;-48
2023/07/09 03:26:26;;;;;;;4.77;2.10;;;;;;;17.96;100.00;100559.16;5017023;28;20468;-50
2023/07/09 03:28:54;;;;;;;0.50;0.20;;;;;;;18.03;100.00;100555.16;5022122;28;20472;-48
2023/07/09 03:31:21;;;;;;;0.50;0.20;;;;;;;17.97;100.00;100560.03;5020466;28;20471;-50
2023/07/09 03:33:50;;;;;;;0.50;0.20;;;;;;;17.94;100.00;100561.03;5023428;28;20462;-49
2023/07/09 03:36:19;;;;;;;0.50;0.20;;;;;;;18.05;100.00;100568.53;5020491;28;20471;-49
2023/07/09 03:38:46;;;;;;;0.50;0.30;;;;;;;18.01;100.00;100562.44;5014865;28;20492;-48
2023/07/09 03:41:13;;;;;;;0.50;0.20;;;;;;;17.99;100.00;100558.97;5024219;28;20473;-48
2023/07/09 03:43:39;;;;;;;0.50;0.20;;;;;;;18.14;100.00;100567.16;5013977;28;20526;-50
2023/07/09 03:46:06;;;;;;;0.50;0.20;;;;;;;17.61;100.00;100568.22;5023473;28;20849;-49
2023/07/09 03:48:32;;;;;;;0.50;0.20;;;;;;;17.52;100.00;100561.50;5014462;28;20475;-50
2023/07/09 03:50:59;;;;;;;0.50;0.20;;;;;;;17.55;100.00;100576.63;5026905;28;20960;-50
2023/07/09 03:53:25;;;;;;;0.50;0.50;;;;;;;17.73;100.00;100573.84;5023902;28;20529;-50
2023/07/09 03:55:54;;;;;;;0.50;0.20;;;;;;;17.74;100.00;100580.94;5015624;28;20479;-50
2023/07/09 03:58:21;;;;;;;0.50;0.20;;;;;;;17.88;100.00;100574.84;5024263;28;20485;-50
2023/07/09 04:00:48;;;;;;;0.50;0.20;;;;;;;17.51;100.00;100580.41;5021659;28;20467;-50
2023/07/09 04:03:15;;;;;;;0.43;0.20;;;;;;;17.71;100.00;100569.50;5018778;28;20472;-50
2023/07/09 04:05:42;;;;;;;0.50;0.20;;;;;;;17.97;100.00;100577.03;5022173;28;20576;-50
2023/07/09 04:08:08;;;;;;;0.50;0.20;;;;;;;18.00;100.00;100576.84;5023900;28;20470;-50
2023/07/09 04:10:34;;;;;;;0.50;0.20;;;;;;;18.25;100.00;100578.19;5017680;28;20831;-51
2023/07/09 04:13:01;;;;;;;0.50;0.30;;;;;;;18.21;100.00;100577.47;5023868;28;20464;-50
2023/07/09 04:15:27;;;;;;;0.43;0.20;;;;;;;18.23;100.00;100582.81;5015598;28;20485;-50
2023/07/09 04:17:54;;;;;;;0.40;0.20;;;;;;;18.20;100.00;100580.25;5026623;28;20499;-51
2023/07/09 04:20:23;;;;;;;0.50;0.20;;;;;;;18.50;100.00;100583.94;5020913;28;20513;-51
2023/07/09 04:22:49;;;;;;;0.50;0.20;;;;;;;18.29;100.00;100585.13;5014896;28;20848;-51
2023/07/09 04:25:16;;;;;;;0.50;0.20;;;;;;;18.40;100.00;100588.09;5016025;28;20511;-51
2023/07/09 04:27:43;;;;;;;0.40;0.20;;;;;;;18.20;100.00;100589.19;5032731;28;20565;-51
2023/07/09 04:30:14;;;;;;;0.50;0.20;;;;;;;18.34;100.00;100588.44;5025512;28;20468;-50
2023/07/09 04:32:45;;;;;;;0.47;0.20;;;;;;;18.31;100.00;100586.78;5022498;28;20820;-51
2023/07/09 04:35:13;;;;;;;0.50;0.20;;;;;;;18.41;100.00;100586.28;5030266;28;20489;-50
2023/07/09 04:37:40;;;;;;;0.50;0.20;;;;;;;18.76;100.00;100595.94;5019427;28;20464;-51
2023/07/09 04:40:10;;;;;;;0.50;0.20;;;;;;;19.34;100.00;100591.66;5022564;28;20464;-51
2023/07/09 04:42:39;;;;;;;0.50;0.20;;;;;;;19.74;98.99;100582.91;5021504;28;20468;-50
2023/07/09 04:45:07;;;;;;;0.50;0.20;;;;;;;20.11;97.65;100596.78;5023328;28;20504;-51
2023/07/09 04:47:33;;;;;;;0.50;0.20;;;;;;;20.38;96.52;100592.31;5024598;28;20526;-51
2023/07/09 04:50:00;;;;;;;0.50;0.20;;;;;;;20.74;95.15;100588.22;5025935;28;20467;-51
2023/07/09 04:52:27;;;;;;;0.50;0.20;;;;;;;20.72;94.73;100587.47;5027433;28;20467;-51
2023/07/09 04:54:53;;;;;;;0.50;0.20;;;;;;;21.01;95.44;100585.53;5021230;28;20487;-51
2023/07/09 04:57:20;;;;;;;0.50;0.20;;;;;;;21.09;95.39;100596.69;5022785;28;20467;-51
2023/07/09 04:59:46;;;;;;;0.50;0.20;;;;;;;21.25;94.78;100596.56;5018344;28;20473;-50
2023/07/09 05:02:12;;;;;;;0.50;0.20;;;;;;;21.40;93.59;100592.81;5027092;28;20468;-51
2023/07/09 05:04:39;;;;;;;0.50;0.20;;;;;;;21.50;92.26;100590.31;5023442;28;20552;-51
2023/07/09 05:07:06;;;;;;;0.50;0.20;;;;;;;21.73;92.34;100586.88;5023578;28;20503;-51
2023/07/09 05:09:33;;;;;;;0.50;0.20;;;;;;;21.96;91.12;100590.69;5025700;28;20995;-51
2023/07/09 05:12:00;;;;;;;0.50;0.20;;;;;;;21.97;90.59;100589.72;5023816;28;20467;-51
2023/07/09 05:14:27;;;;;;;0.50;0.20;;;;;;;22.28;89.88;100595.66;5023434;28;20492;-49
2023/07/09 05:16:54;;;;;;;0.50;0.23;;;;;;;22.47;89.29;100596.03;5031587;28;20525;-49
2023/07/09 05:19:20;;;;;;;0.50;0.20;;;;;;;22.54;89.10;100594.63;5023345;28;20543;-49
2023/07/09 05:21:47;;;;;;;0.50;0.20;;;;;;;22.73;88.08;100589.56;5023415;28;20464;-50
2023/07/09 05:24:13;;;;;;;0.50;0.20;;;;;;;22.77;88.56;100590.22;5021243;28;20492;-49
2023/07/09 05:26:40;;;;;;;0.50;0.20;;;;;;;22.88;88.15;100586.72;5025181;28;20561;-49
2023/07/09 05:29:06;;;;;;;0.50;0.20;;;;;;;23.03;86.98;100574.75;5020167;28;20467;-49
2023/07/09 05:31:33;;;;;;;0.50;0.20;;;;;;;23.19;86.93;100582.56;5018224;28;20460;-49
2023/07/09 05:34:00;;;;;;;0.50;0.20;;;;;;;23.55;86.44;100593.28;5028972;28;20468;-49
2023/07/09 05:36:28;;;;;;;0.50;0.20;;;;;;;23.33;86.32;100594.09;5023240;28;20468;-49
2023/07/09 05:38:56;;;;;;;2.80;2.53;;;;;;;23.58;86.10;100590.38;5017479;28;20474;-49
2023/07/09 05:41:23;;;;;;;3.17;1.93;;;;;;;23.73;85.36;100592.88;5026777;28;20479;-49
2023/07/09 05:43:51;;;;;;;0.50;0.20;;;;;;;23.54;85.42;100596.13;5025957;28;20471;-49
2023/07/09 05:46:19;;;;;;;0.50;0.20;;;;;;;23.81;83.42;100598.56;5019563;28;20500;-48
2023/07/09 05:48:46;;;;;;;0.50;0.20;;;;;;;23.99;83.54;100594.41;5023223;28;20503;-49
2023/07/09 05:51:12;;;;;;;0.50;0.20;;;;;;;24.12;83.83;100594.25;5025764;28;20478;-48
2023/07/09 05:53:39;;;;;;;0.50;0.20;;;;;;;24.19;83.97;100592.78;5026202;28;20495;-49
2023/07/09 05:56:06;;;;;;;0.50;0.20;;;;;;;24.12;84.44;100605.13;5029424;28;20595;-49
2023/07/09 05:58:32;;;;;;;0.50;0.20;;;;;;;24.22;83.46;100601.53;5022705;28;20964;-49
2023/07/09 06:00:59;;;;;;;0.50;0.20;;;;;;;24.48;82.25;100604.03;5026076;28;20468;-49
2023/07/09 06:03:27;;;;;;;0.50;0.20;;;;;;;24.50;82.78;100612.94;5018557;28;20483;-49
2023/07/09 06:05:54;;;;;;;0.50;0.20;;;;;;;24.50;82.30;100605.63;5025481;28;20984;-49
2023/07/09 06:08:21;;;;;;;0.70;0.60;;;;;;;24.49;82.32;100600.34;5026007;28;20498;-49
2023/07/09 06:10:58;;;;;;;0.50;0.23;;;;;;;24.33;81.66;100594.41;5025571;28;20517;-49
2023/07/09 06:13:26;;;;;;;0.50;0.30;;;;;;;24.38;82.12;100608.50;5029892;28;20461;-49
2023/07/09 06:15:54;;;;;;;0.50;0.20;;;;;;;24.82;80.16;100596.72;5019957;28;20952;-49
2023/07/09 06:18:22;;;;;;;0.50;0.20;;;;;;;25.06;78.70;100600.09;5022194;28;20819;-49
2023/07/09 06:20:51;;;;;;;0.50;0.20;;;;;;;24.80;79.23;100602.25;5026073;28;20982;-49
2023/07/09 06:23:18;;;;;;;0.50;0.20;;;;;;;24.77;79.67;100604.38;5019149;28;20471;-49
2023/07/09 06:25:48;;;;;;;0.50;0.20;;;;;;;24.65;80.95;100599.94;5022032;28;20502;-49
2023/07/09 06:28:16;;;;;;;0.50;0.20;;;;;;;24.95;80.13;100604.72;5022014;28;20468;-49
2023/07/09 06:30:43;;;;;;;0.50;0.30;;;;;;;24.98;78.53;100602.59;5024036;28;20562;-49
2023/07/09 06:33:12;;;;;;;0.50;0.40;;;;;;;25.24;77.95;100599.56;5029281;28;20460;-49
2023/07/09 06:35:45;;;;;;;0.50;0.30;;;;;;;25.52;76.61;100604.38;5025885;28;20490;-49
2023/07/09 06:38:12;;;;;;;0.50;0.20;;;;;;;25.55;76.39;100600.53;5027844;28;20460;-49
2023/07/09 06:40:38;;;;;;;0.50;0.20;;;;;;;25.79;74.71;100597.56;5023854;28;20496;-49
2023/07/09 06:43:05;;;;;;;0.50;0.20;;;;;;;25.51;76.33;100594.47;5021990;28;20496;-49
2023/07/09 06:45:32;;;;;;;0.50;0.20;;;;;;;25.99;75.29;100594.81;5021253;28;20539;-49
2023/07/09 06:48:00;;;;;;;0.50;0.30;;;;;;;25.89;73.60;100606.63;5021895;28;20828;-49
2023/07/09 06:50:26;;;;;;;0.50;0.20;;;;;;;25.91;76.20;100602.81;5024545;28;21010;-49
2023/07/09 06:52:53;;;;;;;0.50;0.30;;;;;;;25.77;74.80;100604.97;5021606;28;20474;-49
2023/07/09 06:55:20;;;;;;;0.50;0.30;;;;;;;25.87;75.33;100605.91;5020359;28;20480;-50
2023/07/09 06:57:47;;;;;;;0.50;0.30;;;;;;;26.49;72.29;100605.81;5024774;28;20917;-49
2023/07/09 07:00:15;;;;;;;0.50;0.20;;;;;;;26.45;70.93;100606.22;5027159;28;20555;-49
2023/07/09 07:02:42;;;;;;;0.50;0.23;;;;;;;26.49;71.51;100607.69;5021311;28;20957;-49
2023/07/09 07:05:08;;;;;;;0.50;0.30;;;;;;;26.34;71.92;100600.84;5026748;28;20516;-49
2023/07/09 07:07:35;;;;;;;0.50;0.23;;;;;;;26.64;71.32;100597.25;5016592;28;20555;-49
2023/07/09 07:10:03;;;;;;;0.50;0.40;;;;;;;26.64;70.71;100595.38;5025036;28;20472;-49
2023/07/09 07:12:44;;;;;;;0.50;0.30;;;;;;;26.83;70.47;100597.28;5024068;28;20474;-49
2023/07/09 07:15:15;;;;;;;0.50;0.30;;;;;;;26.61;69.55;100587.50;5021347;28;20572;-49
2023/07/09 07:17:42;;;;;;;0.50;0.30;;;;;;;26.55;68.84;100579.84;5021207;28;20472;-48
2023/07/09 07:20:11;;;;;;;0.50;0.30;;;;;;;26.78;68.55;100577.75;5022915;28;20475;-49
2023/07/09 07:22:37;;;;;;;0.50;0.30;;;;;;;26.74;69.93;100574.47;5030639;28;20473;-49
2023/07/09 07:25:06;;;;;;;0.50;0.20;;;;;;;27.31;69.17;100574.66;5023542;28;20552;-49
2023/07/09 07:27:32;;;;;;;0.50;0.30;;;;;;;27.15;69.35;100572.53;5016240;28;20461;-49
2023/07/09 07:29:59;;;;;;;0.50;0.30;;;;;;;27.64;68.30;100573.38;5018317;28;20894;-49
2023/07/09 07:32:25;;;;;;;0.50;0.20;;;;;;;27.41;68.79;100579.13;5028456;28;20463;-49
2023/07/09 07:34:54;;;;;;;0.50;0.30;;;;;;;27.71;69.29;100574.50;5027215;28;20532;-49
2023/07/09 07:37:20;;;;;;;0.50;0.30;;;;;;;27.47;70.47;100587.75;5019960;28;20447;-49
2023/07/09 07:39:48;;;;;;;0.50;0.30;;;;;;;27.55;69.87;100583.28;5022921;28;20466;-50
2023/07/09 07:42:15;;;;;;;0.50;0.30;;;;;;;27.97;70.24;100582.94;5017793;28;20472;-49
2023/07/09 07:44:41;;;;;;;0.50;0.30;;;;;;;28.11;68.29;100582.44;5020306;28;20545;-49
2023/07/09 07:47:08;;;;;;;0.50;0.30;;;;;;;27.93;69.35;100587.81;5017636;28;20471;-49
2023/07/09 07:49:34;;;;;;;0.50;0.30;;;;;;;28.05;69.84;100588.50;5021138;28;20582;-49
2023/07/09 07:52:03;;;;;;;0.50;0.40;;;;;;;28.61;67.98;100591.16;5024075;28;20442;-50
2023/07/09 07:54:31;;;;;;;0.50;0.30;;;;;;;28.40;67.39;100587.81;5021739;28;20557;-49
2023/07/09 07:56:58;;;;;;;0.50;0.30;;;;;;;28.67;66.22;100589.69;5020959;28;20506;-49
2023/07/09 07:59:25;;;;;;;0.60;0.40;;;;;;;28.56;65.47;100587.16;5020471;28;20814;-49
2023/07/09 08:01:51;;;;;;;0.50;0.30;;;;;;;28.67;66.06;100583.38;5019651;28;20591;-49
2023/07/09 08:04:18;;;;;;;0.50;0.30;;;;;;;29.03;63.14;100584.28;5020228;28;20491;-49
2023/07/09 08:06:44;;;;;;;0.73;0.73;;;;;;;29.01;64.55;100573.50;5022432;28;21029;-49
2023/07/09 08:09:11;;;;;;;0.50;0.30;;;;;;;29.38;63.12;100572.47;5022322;28;20467;-49
2023/07/09 08:11:37;;;;;;;0.50;0.30;;;;;;;29.10;63.32;100569.81;5023774;28;20573;-51
2023/07/09 08:14:03;;;;;;;0.50;0.30;;;;;;;28.88;62.06;100576.59;5020736;28;20506;-49
2023/07/09 08:16:30;;;;;;;0.50;0.40;;;;;;;28.69;63.28;100581.34;5023413;28;20971;-50
2023/07/09 08:18:56;;;;;;;0.50;0.30;;;;;;;28.95;63.85;100576.88;5020622;28;20475;-49
2023/07/09 08:21:23;;;;;;;0.50;0.30;;;;;;;29.27;62.62;100569.97;5020476;28;20434;-49
2023/07/09 08:23:50;;;;;;;0.50;0.30;;;;;;;29.45;62.25;100568.06;5020375;28;20472;-48
2023/07/09 08:26:16;;;;;;;0.50;0.30;;;;;;;29.60;62.05;100561.03;5012120;28;20542;-51
2023/07/09 08:28:43;;;;;;;0.50;0.30;;;;;;;29.53;60.39;100559.97;5022006;28;20468;-50
2023/07/09 08:31:10;;;;;;;0.60;0.50;;;;;;;29.74;60.58;100560.47;5023539;28;20800;-51
2023/07/09 08:33:36;;;;;;;0.50;0.30;;;;;;;29.59;59.76;100572.16;5030443;28;20437;-51
2023/07/09 08:36:03;;;;;;;0.50;0.30;;;;;;;29.75;60.43;100561.31;5019442;28;20616;-50
2023/07/09 08:38:30;;;;;;;0.50;0.30;;;;;;;29.90;60.31;100561.59;5020350;28;20506;-50
2023/07/09 08:41:06;;;;;;;0.60;0.47;;;;;;;29.86;60.29;100568.41;5023832;28;20474;-51
2023/07/09 08:44:03;;;;;;;0.50;0.30;;;;;;;29.68;60.36;100558.34;5020751;28;20438;-48
2023/07/09 08:46:35;;;;;;;0.50;0.30;;;;;;;29.76;59.14;100560.31;5020462;28;20502;-48
2023/07/09 08:49:11;;;;;;;0.50;0.30;;;;;;;30.16;60.82;100562.47;5023330;28;20962;-51
2023/07/09 08:51:42;;;;;;;0.50;0.30;;;;;;;30.35;60.07;100559.44;5025169;28;20442;-48
2023/07/09 08:54:17;;;;;;;0.50;0.30;;;;;;;30.92;57.94;100559.66;5020060;28;20439;-49
2023/07/09 08:56:44;;;;;;;0.50;0.30;;;;;;;30.68;58.52;100559.59;5022763;28;20466;-53
2023/07/09 08:59:15;;;;;;;0.50;0.30;;;;;;;30.71;58.61;100558.41;5022577;28;20445;-50
2023/07/09 09:01:59;;;;;;;0.50;0.40;;;;;;;30.63;59.65;100557.34;5021299;28;20510;-48
2023/07/09 09:04:34;;;;;;;0.50;0.30;;;;;;;30.62;59.45;100558.38;5019143;28;20465;-50
2023/07/09 09:07:03;;;;;;;0.50;0.30;;;;;;;31.47;57.29;100559.03;5026994;28;21064;-51
2023/07/09 09:10:01;;;;;;;0.50;0.30;;;;;;;31.36;58.29;100559.38;5019544;28;20936;-51
2023/07/09 09:12:41;;;;;;;0.50;0.30;;;;;;;31.14;57.22;100560.03;5023223;28;20554;-50
2023/07/09 09:15:20;;;;;;;0.50;0.30;;;;;;;31.21;57.20;100550.97;5021699;28;20886;-51
2023/07/09 09:17:52;;;;;;;0.50;0.30;;;;;;;31.66;56.46;100548.69;5023298;28;20462;-51
2023/07/09 09:20:22;;;;;;;0.50;0.30;;;;;;;31.53;55.53;100557.50;5030074;28;20860;-51
2023/07/09 09:23:07;;;;;;;0.50;0.30;;;;;;;31.83;55.31;100547.69;5023779;28;20474;-51
2023/07/09 09:25:40;;;;;;;0.50;0.30;;;;;;;31.34;54.93;100539.47;5023828;28;20470;-51
2023/07/09 09:28:07;;;;;;;0.50;0.30;;;;;;;31.10;54.63;100545.75;5021650;28;20489;-52
2023/07/09 09:30:34;;;;;;;0.50;0.30;;;;;;;31.39;53.66;100544.47;5023807;28;20538;-51
2023/07/09 09:33:13;;;;;;;0.50;0.40;;;;;;;31.65;51.14;100541.50;5030637;28;20495;-51
2023/07/09 09:35:45;;;;;;;0.50;0.30;;;;;;;32.16;50.40;100547.59;5022562;28;20561;-51
2023/07/09 09:38:15;;;;;;;0.50;0.30;;;;;;;32.62;49.21;100549.50;5023135;28;20479;-51
2023/07/09 09:40:42;;;;;;;0.50;0.30;;;;;;;32.00;47.37;100545.75;5022994;28;20989;-50
2023/07/09 09:43:15;;;;;;;0.50;0.30;;;;;;;31.67;47.08;100539.44;5022905;28;20468;-51
2023/07/09 09:45:44;;;;;;;0.50;0.30;;;;;;;31.86;47.68;100539.09;5022700;28;21054;-51
2023/07/09 09:48:13;;;;;;;0.50;0.30;;;;;;;31.73;47.33;100531.38;5020224;28;20491;-51
2023/07/09 09:50:40;;;;;;;0.50;0.30;;;;;;;32.07;45.88;100535.75;5021549;28;20492;-51
2023/07/09 09:53:08;;;;;;;0.50;0.30;;;;;;;32.24;45.21;100536.56;5022692;28;20843;-52
2023/07/09 09:55:35;;;;;;;0.50;0.30;;;;;;;32.34;45.40;100523.47;5021638;28;20517;-51
2023/07/09 09:58:02;;;;;;;0.50;0.30;;;;;;;33.11;43.83;100527.16;5021767;28;20499;-51
2023/07/09 10:00:33;;;;;;;0.50;0.50;;;;;;;32.93;44.59;100518.34;5019904;28;20507;-51
2023/07/09 10:03:03;;;;;;;0.50;0.30;;;;;;;33.46;43.94;100517.41;5018966;28;20460;-51
2023/07/09 10:05:49;;;;;;;0.73;0.73;;;;;;;33.48;42.58;100517.22;5017951;28;20459;-52
2023/07/09 10:08:22;;;;;;;0.50;0.30;;;;;;;33.61;41.46;100511.06;5014250;28;20499;-50
2023/07/09 10:10:52;;;;;;;0.50;0.30;;;;;;;33.57;41.94;100499.53;5033149;28;20446;-51
2023/07/09 10:13:36;;;;;;;0.50;0.30;;;;;;;33.18;42.35;100510.75;5019114;28;20468;-51
2023/07/09 10:16:36;;;;;;;0.50;0.30;;;;;;;32.98;42.86;100499.34;5018944;28;20516;-50
2023/07/09 10:19:17;;;;;;;0.50;0.30;;;;;;;33.25;43.40;100485.00;5018847;28;20960;-51
2023/07/09 10:21:44;;;;;;;0.50;0.30;;;;;;;32.97;42.87;100486.63;5019891;28;20475;-50
2023/07/09 10:24:33;;;;;;;0.77;0.77;;;;;;;33.09;43.13;100487.91;5019704;28;20468;-51
2023/07/09 10:27:09;;;;;;;0.50;0.30;;;;;;;33.65;42.03;100484.81;5014120;28;20579;-52
2023/07/09 10:29:57;;;;;;;0.50;0.30;;;;;;;33.96;41.25;100481.91;5022089;28;21014;-51
2023/07/09 10:33:13;;;;;;;0.50;0.30;;;;;;;34.16;41.17;100477.53;5014108;28;20488;-51
2023/07/09 10:35:59;;;;;;;0.50;0.30;;;;;;;34.32;41.75;100481.97;5023651;28;20504;-52
2023/07/09 10:38:37;;;;;;;0.50;0.30;;;;;;;34.38;40.95;100478.44;5017172;28;20540;-51
2023/07/09 10:41:11;;;;;;;0.50;0.43;;;;;;;33.91;40.61;100470.59;5018820;28;20450;-51
2023/07/09 10:44:04;;;;;;;0.50;0.30;;;;;;;34.22;39.79;100475.88;5022113;28;20442;-51
2023/07/09 10:46:38;;;;;;;0.50;0.30;;;;;;;34.59;39.23;100472.97;5021863;28;21009;-52
2023/07/09 10:49:09;;;;;;;0.50;0.30;;;;;;;34.90;38.07;100461.63;5025767;28;20459;-51
2023/07/09 10:51:46;;;;;;;0.50;0.30;;;;;;;34.88;38.36;100466.50;5027764;28;20459;-54
2023/07/09 10:54:28;;;;;;;0.50;0.30;;;;;;;35.11;38.51;100465.44;5021774;28;20511;-54
2023/07/09 10:57:10;;;;;;;0.50;0.30;;;;;;;34.85;38.54;100464.09;5021656;28;20558;-54
2023/07/09 10:59:40;;;;;;;0.50;0.30;;;;;;;35.16;37.10;100472.06;5022823;28;20487;-54
2023/07/09 11:02:21;;;;;;;0.50;0.30;;;;;;;35.52;37.50;100463.69;5019924;28;20472;-54
2023/07/09 11:04:56;;;;;;;1.03;1.03;;;;;;;35.00;36.76;100464.06;5023988;28;20986;-54
2023/07/09 11:07:28;;;;;;;0.50;0.30;;;;;;;35.20;36.93;100467.00;5017587;28;20502;-54
2023/07/09 11:09:58;;;;;;;0.50;0.30;;;;;;;35.24;36.16;100460.03;5013628;28;20474;-54
2023/07/09 11:12:39;;;;;;;0.50;0.30;;;;;;;35.21;35.87;100454.88;5022060;28;20513;-53
2023/07/09 11:15:09;;;;;;;0.53;0.53;;;;;;;35.29;36.19;100455.59;5027925;28;20826;-54
2023/07/09 11:17:40;;;;;;;0.50;0.30;;;;;;;35.39;35.51;100460.81;5021059;28;20829;-54
2023/07/09 11:20:28;;;;;;;0.50;0.30;;;;;;;35.39;34.73;100458.06;5022270;28;20906;-53
2023/07/09 11:23:03;;;;;;;0.50;0.40;;;;;;;35.02;34.33;100454.53;4994243;28;20468;-54
2023/07/09 11:25:44;;;;;;;0.50;0.30;;;;;;;35.12;34.67;100456.94;5014619;28;20515;-54
2023/07/09 11:28:11;;;;;;;0.50;0.30;;;;;;;35.48;34.80;100451.28;5024006;28;21050;-51
2023/07/09 11:30:53;;;;;;;0.50;0.30;;;;;;;35.63;33.24;100456.72;5014042;28;21010;-52
2023/07/09 11:33:27;;;;;;;0.50;0.30;;;;;;;35.37;34.25;100451.03;5029433;28;20468;-52
2023/07/09 11:36:09;;;;;;;0.50;0.30;;;;;;;35.68;33.39;100445.91;5019811;28;20557;-52